Time;durP1;ratioP1;P1;durP2;ratioP2;P2;SDS_P1;SDS_P2;PMS_P1;PMS_P2;Temp;Humidity;BMP_temperature;BMP_pressure;BME280_temperature;BME280_humidity;BME280_pressure;Samples;Min_cycle;Max_cycle;Signal;HPM_P1;HPM_P2
2021/12/22 00:04:15;;;;;;;9.57;4.47;;;;;;;;;;10345813;28;20099;-52
2021/12/22 00:09:16;;;;;;;7.93;4.22;;;;;;;;;;10349272;28;20023;-56
2021/12/22 00:14:16;;;;;;;8.52;4.35;;;;;;;;;;10325899;28;20037;-52
2021/12/22 00:19:17;;;;;;;9.90;4.20;;;;;;;;;;10361812;28;20050;-56
2021/12/22 00:24:17;;;;;;;5.57;3.87;;;;;;;;;;10353638;28;20033;-55
2021/12/22 00:29:18;;;;;;;7.80;4.20;;;;;;;;;;10347771;28;21142;-55
2021/12/22 00:34:18;;;;;;;9.50;4.10;;;;;;;;;;10321454;28;20133;-55
2021/12/22 00:39:18;;;;;;;7.27;3.90;;;;;;;;;;10319404;28;20105;-54
2021/12/22 00:44:22;;;;;;;6.90;3.70;;;;;;;;;;10318223;28;21033;-54
2021/12/22 00:49:22;;;;;;;7.85;4.28;;;;;;;;;;10320823;28;20397;-54
2021/12/22 00:54:23;;;;;;;13.52;4.85;;;;;;;;;;10335242;28;20034;-48
2021/12/22 00:59:23;;;;;;;9.80;4.68;;;;;;;;;;10335204;28;20069;-50
2021/12/22 01:04:23;;;;;;;13.20;4.60;;;;;;;;;;10293218;28;20478;-40
2021/12/22 01:09:24;;;;;;;8.70;4.35;;;;;;;;;;10293236;28;20477;-46
2021/12/22 01:14:25;;;;;;;7.85;4.43;;;;;;;;;;10292594;28;20525;-51
2021/12/22 01:19:35;;;;;;;8.73;4.90;;;;;;;;;;10293146;28;20022;-52
2021/12/22 01:24:35;;;;;;;7.75;4.47;;;;;;;;;;10292284;28;20025;-53
2021/12/22 01:29:38;;;;;;;10.23;4.88;;;;;;;;;;10293652;28;20045;-53
2021/12/22 01:34:38;;;;;;;8.73;4.57;;;;;;;;;;10296708;28;20178;-51
2021/12/22 01:39:39;;;;;;;9.27;4.28;;;;;;;;;;10291763;28;20436;-52
2021/12/22 01:45:01;;;;;;;8.43;5.03;;;;;;;;;;10291176;28;20525;-54
2021/12/22 01:50:06;;;;;;;6.97;4.10;;;;;;;;;;10319468;28;20109;-53
2021/12/22 01:55:24;;;;;;;7.30;4.35;;;;;;;;;;10312367;28;20057;-49
2021/12/22 02:00:24;;;;;;;7.72;4.60;;;;;;;;;;10323086;28;20031;-55
2021/12/22 02:05:25;;;;;;;6.17;3.60;;;;;;;;;;10349898;28;20084;-53
2021/12/22 02:10:36;;;;;;;8.10;4.38;;;;;;;;;;10306007;28;20469;-56
2021/12/22 02:15:37;;;;;;;6.95;4.75;;;;;;;;;;10298768;28;20185;-55
2021/12/22 02:20:37;;;;;;;6.60;4.00;;;;;;;;;;10309349;28;20151;-51
2021/12/22 02:25:46;;;;;;;6.27;4.50;;;;;;;;;;10290384;28;20461;-53
2021/12/22 02:30:46;;;;;;;5.30;3.80;;;;;;;;;;10290794;28;20436;-54
2021/12/22 02:36:06;;;;;;;6.18;4.30;;;;;;;;;;10311067;28;20042;-53
2021/12/22 02:41:09;;;;;;;;;;;;;;;;;;10291348;28;20375;-54
2021/12/22 02:46:09;;;;;;;8.60;4.57;;;;;;;;;;10326111;28;19960;-55
2021/12/22 02:51:10;;;;;;;5.57;4.10;;;;;;;;;;10329715;28;20105;-53
2021/12/22 03:11:35;;;;;;;6.55;4.32;;;;;;;;;;10356470;28;20069;-54
2021/12/22 03:16:36;;;;;;;5.60;4.40;;;;;;;;;;10323797;28;20113;-55
2021/12/22 03:21:37;;;;;;;5.30;4.20;;;;;;;;;;10287779;28;20459;-51
2021/12/22 03:26:42;;;;;;;8.95;4.50;;;;;;;;;;10290248;28;20035;-54
2021/12/22 03:31:43;;;;;;;7.05;4.60;;;;;;;;;;10287893;28;20039;-53
2021/12/22 03:36:43;;;;;;;5.97;4.30;;;;;;;;;;10288572;28;20023;-55
2021/12/22 03:41:45;;;;;;;5.40;4.05;;;;;;;;;;10287329;28;20041;-51
2021/12/22 03:46:46;;;;;;;6.05;4.65;;;;;;;;;;10287670;28;20067;-53
2021/12/22 03:51:46;;;;;;;5.07;3.97;;;;;;;;;;10310235;28;20493;-54
2021/12/22 03:56:47;;;;;;;5.25;3.95;;;;;;;;;;10325026;28;20030;-53
2021/12/22 04:01:47;;;;;;;4.75;4.15;;;;;;;;;;10327381;28;20030;-52
2021/12/22 04:06:50;;;;;;;8.32;4.07;;;;;;;;;;10310029;28;20471;-53
2021/12/22 04:11:50;;;;;;;4.70;3.65;;;;;;;;;;10290789;28;20031;-55
2021/12/22 04:16:51;;;;;;;6.20;4.28;;;;;;;;;;10326493;28;20038;-55
2021/12/22 04:21:51;;;;;;;7.18;4.80;;;;;;;;;;10286760;28;20499;-54
2021/12/22 04:26:51;;;;;;;6.60;4.50;;;;;;;;;;10287227;28;20027;-56
2021/12/22 04:31:52;;;;;;;5.35;4.10;;;;;;;;;;10287795;28;20030;-52
2021/12/22 04:36:52;;;;;;;5.20;3.80;;;;;;;;;;10294568;28;20174;-53
2021/12/22 04:41:53;;;;;;;5.10;4.27;;;;;;;;;;10309727;28;20739;-55
2021/12/22 04:46:53;;;;;;;4.93;3.80;;;;;;;;;;10332469;28;20816;-53
2021/12/22 04:51:55;;;;;;;4.43;3.70;;;;;;;;;;10333898;28;20125;-53
2021/12/22 04:56:57;;;;;;;4.75;3.65;;;;;;;;;;10318499;28;20464;-53
2021/12/22 05:01:57;;;;;;;10.80;4.47;;;;;;;;;;10293200;28;20027;-54
2021/12/22 05:06:57;;;;;;;8.45;4.15;;;;;;;;;;10319639;28;20034;-53
2021/12/22 05:11:58;;;;;;;5.87;4.10;;;;;;;;;;10333216;28;20487;-52
2021/12/22 05:17:01;;;;;;;7.28;4.10;;;;;;;;;;10319153;28;20459;-52
2021/12/22 05:22:02;;;;;;;5.82;4.40;;;;;;;;;;10343429;28;20026;-56
2021/12/22 05:27:03;;;;;;;7.18;4.47;;;;;;;;;;10330623;28;20468;-54
2021/12/22 05:32:05;;;;;;;5.82;4.50;;;;;;;;;;10322625;28;20034;-55
2021/12/22 05:37:06;;;;;;;6.70;4.18;;;;;;;;;;10293619;28;20018;-54
2021/12/22 05:42:06;;;;;;;5.50;3.90;;;;;;;;;;10332101;28;20022;-56
2021/12/22 05:47:07;;;;;;;5.10;3.92;;;;;;;;;;10331147;28;20046;-54
2021/12/22 05:52:07;;;;;;;7.80;4.13;;;;;;;;;;10326521;28;20037;-56
2021/12/22 05:57:08;;;;;;;5.83;4.23;;;;;;;;;;10297484;28;20673;-53
2021/12/22 06:02:08;;;;;;;4.82;3.97;;;;;;;;;;10320973;28;20468;-54
2021/12/22 06:07:09;;;;;;;8.15;5.53;;;;;;;;;;10327558;28;20030;-55
2021/12/22 06:12:09;;;;;;;7.05;5.20;;;;;;;;;;10328449;28;20026;-46
2021/12/22 06:17:10;;;;;;;11.73;10.70;;;;;;;;;;10310415;28;20046;-55
2021/12/22 06:22:10;;;;;;;11.40;10.50;;;;;;;;;;10309849;28;20055;-53
2021/12/22 06:27:10;;;;;;;13.60;8.57;;;;;;;;;;10340151;28;20038;-47
2021/12/22 06:32:11;;;;;;;5.67;4.70;;;;;;;;;;10322382;28;20480;-39
2021/12/22 06:37:12;;;;;;;6.55;5.03;;;;;;;;;;10323976;28;20592;-54
2021/12/22 06:42:13;;;;;;;8.05;3.70;;;;;;;;;;10322945;28;20034;-53
2021/12/22 06:47:13;;;;;;;4.10;3.13;;;;;;;;;;10343679;28;20401;-51
2021/12/22 06:52:14;;;;;;;5.35;3.63;;;;;;;;;;10321263;28;20470;-56
2021/12/22 06:57:18;;;;;;;5.77;3.47;;;;;;;;;;10304642;28;20495;-38
2021/12/22 07:02:19;;;;;;;9.75;4.18;;;;;;;;;;10323571;28;20472;-51
2021/12/22 07:07:19;;;;;;;16.00;4.90;;;;;;;;;;10315861;28;20030;-40
2021/12/22 07:12:20;;;;;;;9.53;4.07;;;;;;;;;;10324020;28;20031;-40
2021/12/22 07:17:20;;;;;;;18.05;4.65;;;;;;;;;;10318010;28;21052;-40
2021/12/22 07:22:21;;;;;;;11.85;5.50;;;;;;;;;;10327443;28;20034;-39
2021/12/22 07:27:21;;;;;;;9.95;5.10;;;;;;;;;;10329723;28;20389;-43
2021/12/22 07:32:22;;;;;;;31.37;6.40;;;;;;;;;;10317904;28;20398;-43
2021/12/22 07:37:31;;;;;;;16.80;6.00;;;;;;;;;;10297639;28;20468;-44
2021/12/22 07:42:32;;;;;;;28.95;6.53;;;;;;;;;;10327093;28;20030;-42
2021/12/22 07:47:32;;;;;;;18.13;6.37;;;;;;;;;;10293185;28;20487;-41
2021/12/22 07:52:32;;;;;;;15.20;6.70;;;;;;;;;;10287058;28;20476;-43
2021/12/22 07:57:33;;;;;;;15.20;6.75;;;;;;;;;;10290465;28;20461;-43
2021/12/22 08:02:33;;;;;;;17.58;6.63;;;;;;;;;;10314795;28;20389;-43
2021/12/22 08:07:34;;;;;;;12.60;7.10;;;;;;;;;;10289219;28;20026;-42
2021/12/22 08:12:35;;;;;;;10.10;5.68;;;;;;;;;;10296164;28;20109;-41
2021/12/22 08:17:35;;;;;;;13.50;6.13;;;;;;;;;;10293523;28;20031;-54
2021/12/22 08:22:36;;;;;;;12.13;6.80;;;;;;;;;;10308390;28;20040;-54
2021/12/22 08:27:36;;;;;;;11.98;6.00;;;;;;;;;;10316213;28;20471;-51
2021/12/22 08:32:37;;;;;;;21.10;5.95;;;;;;;;;;10305671;28;20473;-44
2021/12/22 08:42:57;;;;;;;12.50;6.38;;;;;;;;;;10293195;28;20249;-43
2021/12/22 08:47:58;;;;;;;16.98;6.40;;;;;;;;;;10303863;28;20448;-42
2021/12/22 08:52:58;;;;;;;10.03;6.83;;;;;;;;;;10333453;28;20030;-43
2021/12/22 08:57:59;;;;;;;11.95;6.15;;;;;;;;;;10307639;28;20818;-41
2021/12/22 09:02:59;;;;;;;11.67;6.53;;;;;;;;;;10292784;28;20025;-45
2021/12/22 09:07:59;;;;;;;13.60;5.57;;;;;;;;;;10310950;28;20499;-53
2021/12/22 09:13:00;;;;;;;14.68;6.88;;;;;;;;;;10327740;28;20467;-51
2021/12/22 09:18:01;;;;;;;13.80;6.13;;;;;;;;;;10312189;28;20035;-44
2021/12/22 09:23:01;;;;;;;15.60;6.10;;;;;;;;;;10292537;28;20087;-43
2021/12/22 09:28:02;;;;;;;11.15;5.93;;;;;;;;;;10293273;28;20487;-44
2021/12/22 09:33:05;;;;;;;8.98;5.78;;;;;;;;;;10322194;28;20034;-42
2021/12/22 09:38:07;;;;;;;9.82;6.20;;;;;;;;;;10312891;28;20030;-42
2021/12/22 09:43:08;;;;;;;8.95;6.30;;;;;;;;;;10332307;28;20493;-42
2021/12/22 09:53:09;;;;;;;6.22;5.20;;;;;;;;;;10331292;28;20125;-54
2021/12/22 09:58:10;;;;;;;10.68;6.05;;;;;;;;;;10300821;28;20023;-43
2021/12/22 10:03:11;;;;;;;9.82;6.35;;;;;;;;;;10292584;28;20478;-41
2021/12/22 10:08:14;;;;;;;10.60;6.60;;;;;;;;;;10329589;28;20389;-50
2021/12/22 10:13:17;;;;;;;8.57;5.43;;;;;;;;;;10330721;28;20026;-55
2021/12/22 10:18:20;;;;;;;9.40;6.00;;;;;;;;;;10328889;28;20034;-42
2021/12/22 10:23:28;;;;;;;12.77;6.00;;;;;;;;;;10302258;28;20437;-52
2021/12/22 10:28:31;;;;;;;10.13;5.50;;;;;;;;;;10306972;28;20038;-53
2021/12/22 10:33:32;;;;;;;10.02;5.20;;;;;;;;;;10320911;28;20137;-49
2021/12/22 10:38:32;;;;;;;11.85;5.78;;;;;;;;;;10299262;28;20165;-42
2021/12/22 10:43:34;;;;;;;9.98;5.70;;;;;;;;;;10341669;28;20034;-55
2021/12/22 10:53:57;;;;;;;10.35;4.90;;;;;;;;;;10328629;28;20027;-54
2021/12/22 10:59:13;;;;;;;10.73;5.28;;;;;;;;;;10296241;28;20118;-54
2021/12/22 11:04:17;;;;;;;7.70;4.97;;;;;;;;;;10328872;28;20088;-54
2021/12/22 11:09:18;;;;;;;6.70;4.35;;;;;;;;;;10326957;28;20087;-54
2021/12/22 11:14:20;;;;;;;8.77;5.05;;;;;;;;;;10300332;28;20394;-54
2021/12/22 11:19:21;;;;;;;10.93;5.50;;;;;;;;;;10288968;28;20033;-54
2021/12/22 11:24:21;;;;;;;6.82;5.15;;;;;;;;;;10287970;28;20034;-54
2021/12/22 11:29:23;;;;;;;6.78;4.55;;;;;;;;;;10299742;28;20352;-54
2021/12/22 11:34:27;;;;;;;10.23;4.53;;;;;;;;;;10313196;28;20045;-53
2021/12/22 11:39:27;;;;;;;8.80;4.97;;;;;;;;;;10288203;28;20035;-54
2021/12/22 11:44:29;;;;;;;8.43;5.10;;;;;;;;;;10302367;28;20034;-51
2021/12/22 11:49:34;;;;;;;7.10;5.10;;;;;;;;;;10327858;28;20484;-54
2021/12/22 11:54:34;;;;;;;8.40;4.93;;;;;;;;;;10327554;28;20026;-53
2021/12/22 11:59:40;;;;;;;9.70;5.10;;;;;;;;;;10318506;28;20035;-53
2021/12/22 12:04:40;;;;;;;8.45;5.25;;;;;;;;;;10287433;28;20971;-55
2021/12/22 12:09:46;;;;;;;8.67;5.13;;;;;;;;;;10312756;28;20022;-54
2021/12/22 12:25:33;;;;;;;;;;;;;;;;;;10319918;28;20089;-52
2021/12/22 12:30:48;;;;;;;11.60;5.75;;;;;;;;;;10324225;28;20370;-55
2021/12/22 12:36:04;;;;;;;10.27;4.63;;;;;;;;;;10325685;28;20030;-42
2021/12/22 12:41:13;;;;;;;11.45;5.80;;;;;;;;;;10306547;28;20118;-44
2021/12/22 12:46:39;;;;;;;11.73;5.50;;;;;;;;;;10324466;28;20058;-45
2021/12/22 12:51:42;;;;;;;9.88;4.95;;;;;;;;;;10320545;28;20032;-46
2021/12/22 12:56:46;;;;;;;9.45;5.05;;;;;;;;;;10334613;28;20089;-42
2021/12/22 13:01:46;;;;;;;11.95;5.45;;;;;;;;;;10334454;28;20466;-42
2021/12/22 13:06:47;;;;;;;9.10;5.40;;;;;;;;;;10334943;28;20124;-42
2021/12/22 13:11:57;;;;;;;10.75;5.22;;;;;;;;;;10322816;28;20085;-41
2021/12/22 13:16:58;;;;;;;10.73;5.43;;;;;;;;;;10292256;28;20439;-42
2021/12/22 13:22:34;;;;;;;9.70;5.07;;;;;;;;;;10310199;28;20037;-42
2021/12/22 13:27:36;;;;;;;10.43;5.18;;;;;;;;;;10326258;28;20073;-44
2021/12/22 13:33:03;;;;;;;9.90;5.05;;;;;;;;;;10292185;28;20027;-44
2021/12/22 13:38:06;;;;;;;19.23;4.82;;;;;;;;;;10291858;28;20442;-42
2021/12/22 13:43:08;;;;;;;8.85;4.90;;;;;;;;;;10290928;28;20114;-41
2021/12/22 13:48:17;;;;;;;15.80;4.85;;;;;;;;;;10298120;28;20149;-43
2021/12/22 13:53:18;;;;;;;;;;;;;;;;;;10305512;28;20034;-48
2021/12/22 13:58:39;;;;;;;13.50;5.18;;;;;;;;;;10326242;28;20023;-51
2021/12/22 14:03:41;;;;;;;14.60;4.70;;;;;;;;;;10311400;28;20421;-46
2021/12/22 14:08:42;;;;;;;12.90;4.85;;;;;;;;;;10307907;28;20270;-42
2021/12/22 14:13:42;;;;;;;15.02;5.00;;;;;;;;;;10342186;28;20286;-45
2021/12/22 14:18:42;;;;;;;16.50;4.90;;;;;;;;;;10323150;28;20019;-42
2021/12/22 14:23:43;;;;;;;8.93;4.67;;;;;;;;;;10294062;28;20549;-42
2021/12/22 14:29:02;;;;;;;8.63;4.63;;;;;;;;;;10289274;28;20035;-55
2021/12/22 14:34:07;;;;;;;11.05;4.95;;;;;;;;;;10293539;28;20460;-44
2021/12/22 14:39:07;;;;;;;10.45;5.13;;;;;;;;;;10290045;28;20106;-42
2021/12/22 14:44:22;;;;;;;15.45;5.28;;;;;;;;;;10289238;28;20532;-43
2021/12/22 14:49:24;;;;;;;12.60;5.63;;;;;;;;;;10288848;28;20066;-46
2021/12/22 14:54:24;;;;;;;13.80;4.50;;;;;;;;;;10304202;28;20026;-42
2021/12/22 14:59:24;;;;;;;8.40;4.73;;;;;;;;;;10288884;28;20041;-44
2021/12/22 15:04:28;;;;;;;11.32;4.78;;;;;;;;;;10323566;28;20940;-45
2021/12/22 15:09:28;;;;;;;13.43;4.28;;;;;;;;;;10323175;28;20126;-43
2021/12/22 15:14:29;;;;;;;7.20;4.53;;;;;;;;;;10288427;28;20109;-43
2021/12/22 15:19:29;;;;;;;9.70;4.60;;;;;;;;;;10287504;28;20849;-42
2021/12/22 15:24:29;;;;;;;8.27;4.70;;;;;;;;;;10287532;28;20454;-42
2021/12/22 15:29:30;;;;;;;10.27;4.43;;;;;;;;;;10288177;28;20403;-42
2021/12/22 15:34:30;;;;;;;7.60;3.80;;;;;;;;;;10287504;28;20397;-42
2021/12/22 15:39:31;;;;;;;6.90;4.05;;;;;;;;;;10287388;28;20035;-42
2021/12/22 15:44:31;;;;;;;10.93;4.33;;;;;;;;;;10287386;28;20391;-42
2021/12/22 15:49:31;;;;;;;9.23;4.10;;;;;;;;;;10287069;28;20468;-42
2021/12/22 15:54:32;;;;;;;10.30;4.40;;;;;;;;;;10301664;28;20072;-42
2021/12/22 15:59:32;;;;;;;9.40;4.32;;;;;;;;;;10289991;28;20034;-44
2021/12/22 16:04:33;;;;;;;12.93;3.93;;;;;;;;;;10287262;28;20031;-43
2021/12/22 16:09:33;;;;;;;8.32;4.30;;;;;;;;;;10317284;28;20487;-42
2021/12/22 16:14:34;;;;;;;8.57;3.83;;;;;;;;;;10285850;28;20561;-42
2021/12/22 16:19:34;;;;;;;7.05;4.07;;;;;;;;;;10286648;28;20560;-42
2021/12/22 16:24:36;;;;;;;9.65;4.40;;;;;;;;;;10298171;28;20034;-44
2021/12/22 16:29:39;;;;;;;12.02;4.13;;;;;;;;;;10291014;28;20022;-42
2021/12/22 16:34:40;;;;;;;10.40;4.30;;;;;;;;;;10296368;28;20026;-45
2021/12/22 16:39:41;;;;;;;8.52;4.80;;;;;;;;;;10298043;28;20026;-45
2021/12/22 16:44:41;;;;;;;9.68;4.20;;;;;;;;;;10324031;28;20042;-45
2021/12/22 16:49:42;;;;;;;8.57;4.47;;;;;;;;;;10323021;28;20023;-42
2021/12/22 16:54:42;;;;;;;9.18;4.88;;;;;;;;;;10330597;28;20457;-43
2021/12/22 16:59:43;;;;;;;11.90;4.47;;;;;;;;;;10306415;28;20034;-42
2021/12/22 17:04:43;;;;;;;7.60;4.83;;;;;;;;;;10291783;28;20047;-42
2021/12/22 17:09:44;;;;;;;7.85;4.45;;;;;;;;;;10294605;28;20601;-45
2021/12/22 17:14:46;;;;;;;10.02;4.55;;;;;;;;;;10305379;28;20478;-44
2021/12/22 17:19:47;;;;;;;8.27;4.28;;;;;;;;;;10291289;28;20104;-48
2021/12/22 17:24:47;;;;;;;9.68;5.00;;;;;;;;;;10291396;28;20110;-44
2021/12/22 17:29:48;;;;;;;11.13;4.77;;;;;;;;;;10323004;28;20030;-46
2021/12/22 17:34:48;;;;;;;10.63;5.13;;;;;;;;;;10311355;28;20491;-42
2021/12/22 17:39:48;;;;;;;11.45;5.60;;;;;;;;;;10324073;28;20472;-42
2021/12/22 17:44:49;;;;;;;11.68;5.55;;;;;;;;;;10324326;28;20048;-44
2021/12/22 17:49:49;;;;;;;9.32;5.25;;;;;;;;;;10327308;28;20632;-43
2021/12/22 17:54:50;;;;;;;11.48;6.45;;;;;;;;;;10289261;28;20070;-44
2021/12/22 17:59:51;;;;;;;10.68;6.20;;;;;;;;;;10289055;28;20026;-44
2021/12/22 18:24:52;;;;;;;16.67;10.30;;;;;;;;;;10582701;27;20650;-45
2021/12/22 18:29:52;;;;;;;18.50;10.73;;;;;;;;;;10577216;27;20037;-47
2021/12/22 18:34:53;;;;;;;16.85;9.68;;;;;;;;;;10571611;28;20460;-52
2021/12/22 18:39:55;;;;;;;16.80;10.47;;;;;;;;;;10569893;28;20116;-48
2021/12/22 18:49:53;;;;;;;40.25;21.38;;;;;;;;;;10496235;27;20962;-93
2021/12/22 18:54:54;;;;;;;45.50;22.17;;;;;;;;;;10434611;28;20077;-87
2021/12/22 18:59:54;;;;;;;41.33;22.13;;;;;;;;;;10429896;28;20120;-88
2021/12/22 19:04:55;;;;;;;43.35;20.40;;;;;;;;;;10446899;28;20021;-93
2021/12/22 19:09:55;;;;;;;45.42;20.85;;;;;;;;;;10451466;28;20029;-86
2021/12/22 19:14:55;;;;;;;32.60;19.60;;;;;;;;;;10440965;28;20022;-91
2021/12/22 19:19:55;;;;;;;31.33;18.63;;;;;;;;;;10423225;28;20029;-84
2021/12/22 19:25:44;;;;;;;19.88;10.07;;;;;;;;;;10486588;28;20634;-55
2021/12/22 19:30:44;;;;;;;15.75;10.80;;;;;;;;;;10443177;28;20041;-51
2021/12/22 19:35:45;;;;;;;14.68;10.00;;;;;;;;;;10423421;28;20037;-57
2021/12/22 19:40:46;;;;;;;13.77;10.02;;;;;;;;;;10446170;28;20021;-55
2021/12/22 19:45:47;;;;;;;21.20;10.35;;;;;;;;;;10443543;28;20051;-57
2021/12/22 19:50:48;;;;;;;32.85;11.88;;;;;;;;;;10426322;28;20534;-56
2021/12/22 19:55:48;;;;;;;29.38;12.30;;;;;;;;;;10452821;28;20564;-51
2021/12/22 20:00:49;;;;;;;27.73;12.07;;;;;;;;;;10418743;28;20025;-52
2021/12/22 20:05:49;;;;;;;21.75;12.02;;;;;;;;;;10437089;28;20504;-53
2021/12/22 20:10:51;;;;;;;27.30;11.63;;;;;;;;;;10433281;28;20046;-56
2021/12/22 20:15:51;;;;;;;39.15;12.85;;;;;;;;;;10431722;28;20022;-51
2021/12/22 20:20:52;;;;;;;21.83;12.23;;;;;;;;;;10413019;28;20044;-57
2021/12/22 20:25:52;;;;;;;22.05;11.88;;;;;;;;;;10411394;28;20128;-53
2021/12/22 20:30:53;;;;;;;17.75;11.55;;;;;;;;;;10409095;28;20025;-53
2021/12/22 20:35:53;;;;;;;20.58;11.45;;;;;;;;;;10420783;28;20536;-54
2021/12/22 20:40:54;;;;;;;18.40;10.57;;;;;;;;;;10376164;28;20044;-51
2021/12/22 20:45:55;;;;;;;21.55;11.05;;;;;;;;;;10400196;28;20044;-55
2021/12/22 20:50:57;;;;;;;18.65;11.48;;;;;;;;;;10414010;28;20026;-52
2021/12/22 20:55:58;;;;;;;20.77;10.32;;;;;;;;;;10393781;28;20034;-51
2021/12/22 21:00:58;;;;;;;21.05;11.63;;;;;;;;;;10401889;28;20099;-52
2021/12/22 21:05:59;;;;;;;21.00;10.00;;;;;;;;;;10372946;28;20061;-54
2021/12/22 21:11:00;;;;;;;21.70;10.70;;;;;;;;;;10373018;28;20037;-53
2021/12/22 21:16:02;;;;;;;21.65;11.63;;;;;;;;;;10373872;28;20456;-55
2021/12/22 21:21:04;;;;;;;25.08;12.05;;;;;;;;;;10406777;28;20049;-55
2021/12/22 21:26:05;;;;;;;21.30;11.55;;;;;;;;;;10378151;28;20030;-55
2021/12/22 21:31:09;;;;;;;17.80;9.98;;;;;;;;;;10371725;28;20025;-53
2021/12/22 21:36:09;;;;;;;19.20;11.20;;;;;;;;;;10374277;28;20030;-52
2021/12/22 21:41:10;;;;;;;20.73;10.75;;;;;;;;;;10390271;28;20030;-57
2021/12/22 21:46:10;;;;;;;21.98;11.48;;;;;;;;;;10399102;28;20477;-54
2021/12/22 21:51:11;;;;;;;18.40;11.77;;;;;;;;;;10390422;28;20404;-53
2021/12/22 21:56:11;;;;;;;18.50;11.35;;;;;;;;;;10403333;28;20553;-52
2021/12/22 22:01:11;;;;;;;15.63;10.32;;;;;;;;;;10388671;28;20074;-55
2021/12/22 22:06:12;;;;;;;22.80;11.05;;;;;;;;;;10377613;28;20034;-53
2021/12/22 22:11:12;;;;;;;23.08;11.60;;;;;;;;;;10382789;28;20484;-52
2021/12/22 22:16:13;;;;;;;20.47;10.83;;;;;;;;;;10383962;28;20040;-53
2021/12/22 22:21:13;;;;;;;19.63;10.23;;;;;;;;;;10384010;28;20525;-52
2021/12/22 22:26:13;;;;;;;15.60;10.10;;;;;;;;;;10389677;28;20551;-53
2021/12/22 22:31:14;;;;;;;15.37;10.00;;;;;;;;;;10383115;28;20464;-56
2021/12/22 22:36:14;;;;;;;17.27;10.37;;;;;;;;;;10380168;28;20456;-56
2021/12/22 22:41:14;;;;;;;19.80;9.80;;;;;;;;;;10383130;28;20041;-57
2021/12/22 22:46:15;;;;;;;16.53;10.40;;;;;;;;;;10401500;28;20515;-56
2021/12/22 22:51:15;;;;;;;18.87;9.90;;;;;;;;;;10403699;28;20510;-56
2021/12/22 22:56:16;;;;;;;15.00;9.67;;;;;;;;;;10407977;28;20532;-54
2021/12/22 23:01:16;;;;;;;17.45;10.93;;;;;;;;;;10408355;28;20481;-55
2021/12/22 23:06:17;;;;;;;16.45;11.10;;;;;;;;;;10408547;28;20041;-58
2021/12/22 23:11:17;;;;;;;19.67;10.05;;;;;;;;;;10392882;28;20080;-57
2021/12/22 23:16:17;;;;;;;14.20;10.20;;;;;;;;;;10409239;28;20029;-57
2021/12/22 23:21:18;;;;;;;18.05;10.45;;;;;;;;;;10404600;28;20396;-58
2021/12/22 23:26:18;;;;;;;20.90;10.37;;;;;;;;;;10408938;28;20026;-55
2021/12/22 23:31:19;;;;;;;16.40;10.07;;;;;;;;;;10408032;28;21035;-55
2021/12/22 23:36:24;;;;;;;22.43;11.10;;;;;;;;;;10428979;28;20376;-57
2021/12/22 23:52:02;;;;;;;;;;;;;;;;;;10406876;28;20033;-58
2021/12/22 23:57:03;;;;;;;17.57;10.37;;;;;;;;;;10408695;28;19917;-56
